createdAt,value
2022-12-09T00:02:05.511Z,41.40
2022-12-09T00:04:35.310Z,41.40
2022-12-09T00:07:03.584Z,41.10
2022-12-09T00:09:31.578Z,41.00
2022-12-09T00:11:59.762Z,40.90
2022-12-09T00:14:27.724Z,40.70
2022-12-09T00:16:55.960Z,40.50
2022-12-09T00:19:25.699Z,40.20
2022-12-09T00:21:54.970Z,40.10
2022-12-09T00:24:22.938Z,40.10
2022-12-09T00:26:50.876Z,40.10
2022-12-09T00:29:18.962Z,40.60
2022-12-09T00:31:47.425Z,41.10
2022-12-09T00:34:15.664Z,41.10
2022-12-09T00:36:43.637Z,41.20
2022-12-09T00:39:14.306Z,41.10
2022-12-09T00:41:43.485Z,42.50
2022-12-09T00:44:12.542Z,42.70
2022-12-09T00:46:42.602Z,42.80
2022-12-09T00:49:11.606Z,42.00
2022-12-09T00:51:39.678Z,41.80
2022-12-09T00:54:07.695Z,41.60
2022-12-09T00:56:37.750Z,42.20
2022-12-09T00:59:05.864Z,41.80
2022-12-09T01:01:33.984Z,41.80
2022-12-09T01:04:02.535Z,42.00
2022-12-09T01:06:31.000Z,42.00
2022-12-09T01:09:00.739Z,41.60
2022-12-09T01:11:30.628Z,41.50
2022-12-09T01:14:03.056Z,41.50
2022-12-09T01:16:33.755Z,41.20
2022-12-09T01:19:04.943Z,41.20
2022-12-09T01:21:33.737Z,40.90
2022-12-09T01:24:02.027Z,41.40
2022-12-09T01:26:30.056Z,40.90
2022-12-09T01:28:58.247Z,40.70
2022-12-09T01:31:27.955Z,40.40
2022-12-09T01:33:57.548Z,40.40
2022-12-09T01:36:30.524Z,40.30
2022-12-09T01:39:00.811Z,39.80
2022-12-09T01:41:29.380Z,39.70
2022-12-09T01:44:18.933Z,39.90
2022-12-09T01:46:48.661Z,40.00
2022-12-09T01:49:21.561Z,40.10
2022-12-09T01:51:57.109Z,40.20
2022-12-09T01:54:25.867Z,40.00
2022-12-09T01:56:55.713Z,39.80
2022-12-09T01:59:24.792Z,40.00
2022-12-09T02:01:58.079Z,39.80
2022-12-09T02:04:28.343Z,40.50
2022-12-09T02:06:58.519Z,40.50
2022-12-09T02:09:26.842Z,40.70
2022-12-09T02:12:08.266Z,41.00
2022-12-09T02:14:41.443Z,41.20
2022-12-09T02:17:27.402Z,41.00
2022-12-09T02:20:07.185Z,41.00
2022-12-09T02:22:43.411Z,40.80
2022-12-09T02:25:24.474Z,40.60
2022-12-09T02:28:06.861Z,40.60
2022-12-09T02:30:41.169Z,40.90
2022-12-09T02:33:35.222Z,41.20
2022-12-09T02:36:12.901Z,41.10
2022-12-09T02:38:43.084Z,40.90
2022-12-09T02:41:16.435Z,40.50
2022-12-09T02:43:50.947Z,40.50
2022-12-09T02:46:25.737Z,40.40
2022-12-09T02:48:58.461Z,40.40
2022-12-09T02:51:31.737Z,40.40
2022-12-09T02:54:04.658Z,39.70
2022-12-09T02:56:36.458Z,39.70
2022-12-09T02:59:07.048Z,39.70
2022-12-09T03:01:41.462Z,39.70
2022-12-09T03:04:11.646Z,39.70
2022-12-09T03:06:46.225Z,39.80
2022-12-09T03:09:18.310Z,39.80
2022-12-09T03:11:48.691Z,39.70
2022-12-09T03:14:21.519Z,39.90
2022-12-09T03:16:55.355Z,39.70
2022-12-09T03:19:27.378Z,39.70
2022-12-09T03:22:02.230Z,39.80
2022-12-09T03:24:35.448Z,39.70
2022-12-09T03:27:10.362Z,39.60
2022-12-09T03:29:41.602Z,39.70
2022-12-09T03:32:11.286Z,39.80
2022-12-09T03:34:43.821Z,39.90
2022-12-09T03:37:14.483Z,40.00
2022-12-09T03:39:43.811Z,40.30
2022-12-09T03:42:20.121Z,40.30
2022-12-09T03:44:52.355Z,40.30
2022-12-09T03:47:20.628Z,40.10
2022-12-09T03:49:49.415Z,40.40
2022-12-09T03:52:26.012Z,40.30
2022-12-09T03:54:58.903Z,40.20
2022-12-09T03:57:27.263Z,40.20
2022-12-09T03:59:59.371Z,40.50
2022-12-09T04:02:27.846Z,40.10
2022-12-09T04:04:56.429Z,40.20
2022-12-09T04:07:26.203Z,40.10
2022-12-09T04:09:54.249Z,40.30
2022-12-09T04:12:22.470Z,40.20
2022-12-09T04:14:50.684Z,40.20
2022-12-09T04:17:18.924Z,40.20
2022-12-09T04:19:47.258Z,40.20
2022-12-09T04:22:15.654Z,40.30
2022-12-09T04:24:45.312Z,40.10
2022-12-09T04:27:13.878Z,39.90
2022-12-09T04:29:41.860Z,39.90
2022-12-09T04:32:10.292Z,40.00
2022-12-09T04:34:38.389Z,40.00
2022-12-09T04:37:06.510Z,40.10
2022-12-09T04:39:34.455Z,40.00
2022-12-09T04:42:04.011Z,40.00
2022-12-09T04:44:32.186Z,40.10
2022-12-09T04:47:00.435Z,40.10
2022-12-09T04:49:28.875Z,40.10
2022-12-09T04:51:56.934Z,40.20
2022-12-09T04:54:26.114Z,40.00
2022-12-09T04:56:54.149Z,40.00
2022-12-09T04:59:23.720Z,40.10
2022-12-09T05:01:52.166Z,40.00
2022-12-09T05:04:20.607Z,40.10
2022-12-09T05:06:49.542Z,40.50
2022-12-09T05:09:17.732Z,40.60
2022-12-09T05:11:45.902Z,40.80
2022-12-09T05:14:14.183Z,40.50
2022-12-09T05:16:43.608Z,40.60
2022-12-09T05:19:12.276Z,40.80
2022-12-09T05:21:40.605Z,40.60
2022-12-09T05:24:08.910Z,40.40
2022-12-09T05:26:37.824Z,40.40
2022-12-09T05:29:06.483Z,40.60
2022-12-09T05:31:34.871Z,40.70
2022-12-09T05:34:04.667Z,40.70
2022-12-09T05:36:32.985Z,40.60
2022-12-09T05:39:01.081Z,40.30
2022-12-09T05:41:29.292Z,40.30
2022-12-09T05:43:58.962Z,40.30
2022-12-09T05:46:27.371Z,40.50
2022-12-09T05:48:55.576Z,40.70
2022-12-09T05:51:27.179Z,40.80
2022-12-09T05:53:56.692Z,40.70
2022-12-09T05:56:25.988Z,40.60
2022-12-09T05:58:57.236Z,40.50
2022-12-09T06:01:26.523Z,40.60
2022-12-09T06:03:55.922Z,40.70
2022-12-09T06:06:28.142Z,40.90
2022-12-09T06:08:59.525Z,41.10
2022-12-09T06:11:29.110Z,42.00
2022-12-09T06:13:57.672Z,42.80
2022-12-09T06:16:27.086Z,42.80
2022-12-09T06:18:56.137Z,42.70
2022-12-09T06:21:26.018Z,42.90
2022-12-09T06:23:54.952Z,42.70
2022-12-09T06:26:26.126Z,42.90
2022-12-09T06:28:55.013Z,43.00
2022-12-09T06:31:24.019Z,42.90
2022-12-09T06:33:55.921Z,43.10
2022-12-09T06:36:27.484Z,42.90
2022-12-09T06:38:56.984Z,42.90
2022-12-09T06:41:26.232Z,42.60
2022-12-09T06:43:54.577Z,42.30
2022-12-09T06:46:24.913Z,42.20
2022-12-09T06:48:53.882Z,42.70
2022-12-09T06:51:24.327Z,42.90
2022-12-09T06:53:54.443Z,42.50
2022-12-09T06:56:23.136Z,42.20
2022-12-09T06:58:51.498Z,41.80
2022-12-09T07:01:21.981Z,42.10
2022-12-09T07:03:52.421Z,42.00
2022-12-09T07:06:25.584Z,42.20
2022-12-09T07:08:55.790Z,42.10
2022-12-09T07:11:26.484Z,42.00
2022-12-09T07:13:54.885Z,42.00
2022-12-09T07:16:23.136Z,42.00
2022-12-09T07:18:52.026Z,42.00
2022-12-09T07:21:22.089Z,42.10
2022-12-09T07:23:53.456Z,41.80
2022-12-09T07:26:23.573Z,41.90
2022-12-09T07:28:51.958Z,41.70
2022-12-09T07:31:22.315Z,41.80
2022-12-09T07:33:52.110Z,41.60
2022-12-09T07:36:22.290Z,41.40
2022-12-09T07:38:55.167Z,41.30
2022-12-09T07:41:25.254Z,41.00
2022-12-09T07:43:53.730Z,40.70
2022-12-09T07:46:23.850Z,40.40
2022-12-09T07:48:52.332Z,40.50
2022-12-09T07:51:21.064Z,40.60
2022-12-09T07:53:49.579Z,40.60
2022-12-09T07:56:19.406Z,40.50
2022-12-09T07:58:51.270Z,40.40
2022-12-09T08:01:21.370Z,40.10
2022-12-09T08:03:50.626Z,40.10
2022-12-09T08:06:20.716Z,40.60
2022-12-09T08:08:50.135Z,41.10
2022-12-09T08:11:20.590Z,41.10
2022-12-09T08:13:50.427Z,41.40
2022-12-09T08:16:21.858Z,41.80
2022-12-09T08:18:51.648Z,41.70
2022-12-09T08:21:22.699Z,41.50
2022-12-09T08:23:51.494Z,41.30
2022-12-09T08:26:22.364Z,40.90
2022-12-09T08:28:53.226Z,40.50
2022-12-09T08:31:23.264Z,40.40
2022-12-09T08:33:52.407Z,40.40
2022-12-09T08:36:22.391Z,40.50
2022-12-09T08:38:51.150Z,40.40
2022-12-09T08:41:21.498Z,40.20
2022-12-09T08:43:51.306Z,39.80
2022-12-09T08:46:19.679Z,40.70
2022-12-09T08:48:48.183Z,40.70
2022-12-09T08:51:16.497Z,41.40
2022-12-09T08:53:46.893Z,40.90
2022-12-09T08:56:16.219Z,41.40
2022-12-09T08:58:44.657Z,41.40
2022-12-09T09:01:19.646Z,41.40
2022-12-09T09:03:48.964Z,41.40
2022-12-09T09:06:18.317Z,41.40
2022-12-09T09:08:47.028Z,41.80
2022-12-09T09:11:18.880Z,41.60
2022-12-09T09:13:51.653Z,41.60
2022-12-09T09:16:23.699Z,40.50
2022-12-09T09:18:52.767Z,39.90
2022-12-09T09:21:23.346Z,40.50
2022-12-09T09:23:51.916Z,40.10
2022-12-09T09:26:25.975Z,38.80
2022-12-09T09:28:55.224Z,39.50
2022-12-09T09:31:26.031Z,39.50
2022-12-09T09:33:54.968Z,39.60
2022-12-09T09:36:25.122Z,40.20
2022-12-09T09:38:55.985Z,40.50
2022-12-09T09:41:39.338Z,40.40
2022-12-09T09:44:18.172Z,39.90
2022-12-09T09:46:50.006Z,38.70
2022-12-09T09:49:23.742Z,39.10
2022-12-09T09:51:55.016Z,39.20
2022-12-09T09:54:23.566Z,38.00
2022-12-09T09:56:57.315Z,36.20
2022-12-09T09:59:39.294Z,36.20
2022-12-09T10:02:19.993Z,35.40
2022-12-09T10:05:00.196Z,36.00
2022-12-09T10:07:37.543Z,36.80
2022-12-09T10:10:21.791Z,35.70
2022-12-09T10:13:08.198Z,35.70
2022-12-09T10:15:46.399Z,36.00
2022-12-09T10:18:22.456Z,36.20
2022-12-09T10:20:51.378Z,37.60
2022-12-09T10:23:20.190Z,36.60
2022-12-09T10:25:51.882Z,36.40
2022-12-09T10:28:23.943Z,35.80
2022-12-09T10:30:53.726Z,36.00
2022-12-09T10:33:28.373Z,36.70
2022-12-09T10:35:57.028Z,36.30
2022-12-09T10:38:27.543Z,36.60
2022-12-09T10:41:02.901Z,36.20
2022-12-09T10:43:35.523Z,35.80
2022-12-09T10:46:23.122Z,35.30
2022-12-09T10:49:01.540Z,35.80
2022-12-09T10:51:37.371Z,35.70
2022-12-09T10:54:20.945Z,34.80
2022-12-09T10:57:07.451Z,34.80
2022-12-09T10:59:36.922Z,35.90
2022-12-09T11:02:21.990Z,36.80
2022-12-09T11:04:52.289Z,36.40
2022-12-09T11:07:23.219Z,35.60
2022-12-09T11:10:04.202Z,36.40
2022-12-09T11:12:40.932Z,37.10
2022-12-09T11:15:28.695Z,37.00
2022-12-09T11:17:59.696Z,38.00
2022-12-09T11:20:32.495Z,38.80
2022-12-09T11:23:04.421Z,38.20
2022-12-09T11:25:34.519Z,37.50
2022-12-09T11:28:04.913Z,37.50
2022-12-09T11:30:35.857Z,37.80
2022-12-09T11:33:09.670Z,37.00
2022-12-09T11:35:52.303Z,36.70
2022-12-09T11:38:29.282Z,35.70
2022-12-09T11:41:07.250Z,35.30
2022-12-09T11:43:43.445Z,35.40
2022-12-09T11:46:27.053Z,35.60
2022-12-09T11:48:58.640Z,35.10
2022-12-09T11:51:32.841Z,35.30
2022-12-09T11:54:05.860Z,35.40
2022-12-09T11:56:35.581Z,35.30
2022-12-09T11:59:10.244Z,35.50
2022-12-09T12:01:48.045Z,34.90
2022-12-09T12:04:18.715Z,34.80
2022-12-09T12:06:51.416Z,35.20
2022-12-09T12:09:25.715Z,35.70
2022-12-09T12:12:01.594Z,36.00
2022-12-09T12:14:31.401Z,34.60
2022-12-09T12:17:09.380Z,34.70
2022-12-09T12:19:40.766Z,34.10
2022-12-09T12:22:32.644Z,34.10
2022-12-09T12:25:25.908Z,33.70
2022-12-09T12:28:14.969Z,34.20
2022-12-09T12:30:50.913Z,34.10
2022-12-09T12:36:27.333Z,33.80
2022-12-09T12:39:06.879Z,33.60
2022-12-09T12:41:42.735Z,33.50
2022-12-09T12:45:02.784Z,33.60
2022-12-09T12:47:42.743Z,33.90
2022-12-09T12:50:33.120Z,33.90
2022-12-09T12:53:08.997Z,34.10
2022-12-09T12:55:47.057Z,34.30
2022-12-09T12:58:29.869Z,34.70
2022-12-09T13:01:06.619Z,35.00
2022-12-09T13:03:43.398Z,36.10
2022-12-09T13:06:14.485Z,36.60
2022-12-09T13:08:46.996Z,36.80
2022-12-09T13:11:20.401Z,37.50
2022-12-09T13:13:53.716Z,37.20
2022-12-09T13:16:27.523Z,37.70
2022-12-09T13:19:07.927Z,37.90
2022-12-09T13:21:36.144Z,38.00
2022-12-09T13:24:15.876Z,38.00
2022-12-09T13:26:50.630Z,39.00
2022-12-09T13:29:30.965Z,39.10
2022-12-09T13:32:06.104Z,39.60
2022-12-09T13:34:38.678Z,40.10
2022-12-09T13:37:07.197Z,40.20
2022-12-09T13:39:55.163Z,40.10
2022-12-09T13:42:56.364Z,40.50
2022-12-09T13:45:32.862Z,40.10
2022-12-09T13:48:17.559Z,40.30
2022-12-09T13:50:59.397Z,41.10
2022-12-09T13:53:33.686Z,40.30
2022-12-09T13:56:04.019Z,40.60
2022-12-09T13:59:09.578Z,40.70
2022-12-09T14:01:43.296Z,41.00
2022-12-09T14:04:18.394Z,41.40
2022-12-09T14:06:58.403Z,41.50
2022-12-09T14:09:34.006Z,41.20
2022-12-09T14:12:03.252Z,40.50
2022-12-09T14:15:01.436Z,40.70
2022-12-09T14:18:04.791Z,40.30
2022-12-09T14:20:36.101Z,40.00
2022-12-09T14:23:14.491Z,40.90
2022-12-09T14:25:55.943Z,41.20
2022-12-09T14:28:58.425Z,40.70
2022-12-09T14:31:50.901Z,41.10
2022-12-09T14:34:31.485Z,42.20
2022-12-09T14:37:12.531Z,42.90
2022-12-09T14:39:48.046Z,44.00
2022-12-09T14:42:28.550Z,42.60
2022-12-09T14:45:03.853Z,43.10
2022-12-09T14:47:39.478Z,43.10
2022-12-09T14:50:14.075Z,43.10
2022-12-09T14:52:51.663Z,43.40
2022-12-09T14:55:23.025Z,43.70
2022-12-09T14:57:52.279Z,43.40
2022-12-09T15:00:29.126Z,42.70
2022-12-09T15:05:56.533Z,42.10
2022-12-09T15:08:32.336Z,42.20
2022-12-09T15:11:07.714Z,41.80
2022-12-09T15:13:37.664Z,42.40
2022-12-09T15:16:09.976Z,42.80
2022-12-09T15:18:41.814Z,43.00
2022-12-09T15:21:10.011Z,43.30
2022-12-09T15:23:40.911Z,43.50
2022-12-09T15:26:19.080Z,43.50
2022-12-09T15:28:49.411Z,44.60
2022-12-09T15:31:19.582Z,44.90
2022-12-09T15:33:50.549Z,43.90
2022-12-09T15:36:23.536Z,44.80
2022-12-09T15:38:54.526Z,45.10
2022-12-09T15:41:40.742Z,45.40
2022-12-09T15:44:12.437Z,45.10
2022-12-09T15:46:44.376Z,45.90
2022-12-09T15:49:16.866Z,45.50
2022-12-09T15:51:46.306Z,45.30
2022-12-09T15:54:19.568Z,45.20
2022-12-09T15:56:52.680Z,44.50
2022-12-09T15:59:26.324Z,45.10
2022-12-09T16:01:57.799Z,45.30
2022-12-09T16:04:30.427Z,45.10
2022-12-09T16:07:05.869Z,44.80
2022-12-09T16:09:34.292Z,44.70
2022-12-09T16:12:02.468Z,45.10
2022-12-09T16:14:43.335Z,45.70
2022-12-09T16:17:21.640Z,45.60
2022-12-09T16:19:54.441Z,45.90
2022-12-09T16:22:25.455Z,45.90
2022-12-09T16:25:15.714Z,46.40
2022-12-09T16:27:46.296Z,47.10
2022-12-09T16:30:16.985Z,47.00
2022-12-09T16:32:46.164Z,47.40
2022-12-09T16:35:22.824Z,47.70
2022-12-09T16:38:20.853Z,48.90
2022-12-09T16:41:12.535Z,48.10
2022-12-09T16:43:58.607Z,47.90
2022-12-09T16:46:39.242Z,49.00
2022-12-09T16:49:08.348Z,49.00
2022-12-09T16:51:38.815Z,50.20
2022-12-09T16:54:20.077Z,49.60
2022-12-09T16:56:48.830Z,49.90
2022-12-09T16:59:16.791Z,50.70
2022-12-09T17:01:44.905Z,50.20
2022-12-09T17:04:15.990Z,50.80
2022-12-09T17:06:45.614Z,51.10
2022-12-09T17:09:13.950Z,51.10
2022-12-09T17:11:48.398Z,50.70
2022-12-09T17:14:17.493Z,50.70
2022-12-09T17:16:45.786Z,50.50
2022-12-09T17:19:14.321Z,50.30
2022-12-09T17:21:42.352Z,51.00
2022-12-09T17:24:13.176Z,50.60
2022-12-09T17:26:41.283Z,51.40
2022-12-09T17:29:09.239Z,51.20
2022-12-09T17:31:37.228Z,51.20
2022-12-09T17:34:06.841Z,50.70
2022-12-09T17:36:34.787Z,49.80
2022-12-09T17:39:03.375Z,49.10
2022-12-09T17:41:32.721Z,49.20
2022-12-09T17:44:01.123Z,49.50
2022-12-09T17:46:29.268Z,49.90
2022-12-09T17:48:57.250Z,49.70
2022-12-09T17:51:25.237Z,50.00
2022-12-09T17:53:53.356Z,49.40
2022-12-09T17:56:23.018Z,49.30
2022-12-09T17:58:59.733Z,49.60
2022-12-09T18:01:28.319Z,49.80
2022-12-09T18:04:02.880Z,49.40
2022-12-09T18:06:34.973Z,49.30
2022-12-09T18:09:04.303Z,49.30
2022-12-09T18:11:32.925Z,49.50
2022-12-09T18:14:02.908Z,49.70
2022-12-09T18:16:30.966Z,49.80
2022-12-09T18:19:03.104Z,49.20
2022-12-09T18:21:31.131Z,49.80
2022-12-09T18:23:59.052Z,49.80
2022-12-09T18:26:30.647Z,49.90
2022-12-09T18:29:02.411Z,49.30
2022-12-09T18:31:30.548Z,49.30
2022-12-09T18:33:58.759Z,49.40
2022-12-09T18:36:29.212Z,49.90
2022-12-09T18:38:57.935Z,50.10
2022-12-09T18:41:29.037Z,50.30
2022-12-09T18:43:59.005Z,51.00
2022-12-09T18:46:30.057Z,50.80
2022-12-09T18:48:59.240Z,50.90
2022-12-09T18:51:32.836Z,51.10
2022-12-09T18:54:02.366Z,51.90
2022-12-09T18:56:31.369Z,51.20
2022-12-09T18:59:08.576Z,51.00
2022-12-09T19:01:40.813Z,51.20
2022-12-09T19:04:12.584Z,52.50
2022-12-09T19:06:43.258Z,54.00
2022-12-09T19:09:13.635Z,53.90
2022-12-09T19:11:42.858Z,53.80
2022-12-09T19:14:11.390Z,53.70
2022-12-09T19:16:41.010Z,53.00
2022-12-09T19:19:10.667Z,52.90
2022-12-09T19:21:39.583Z,52.80
2022-12-09T19:24:11.278Z,52.90
2022-12-09T19:26:39.392Z,53.10
2022-12-09T19:29:09.284Z,53.40
2022-12-09T19:31:41.273Z,53.10
2022-12-09T19:34:13.313Z,53.50
2022-12-09T19:36:41.563Z,54.10
2022-12-09T19:39:10.722Z,54.30
2022-12-09T19:41:40.358Z,53.70
2022-12-09T19:44:08.925Z,53.60
2022-12-09T19:46:38.391Z,53.20
2022-12-09T19:49:10.252Z,52.80
2022-12-09T19:51:38.489Z,52.80
2022-12-09T19:54:06.868Z,53.80
2022-12-09T19:56:34.986Z,54.10
2022-12-09T19:59:03.079Z,53.50
2022-12-09T20:01:32.741Z,53.40
2022-12-09T20:04:19.085Z,53.80
2022-12-09T20:06:53.001Z,53.70
2022-12-09T20:09:24.326Z,52.60
2022-12-09T20:11:52.896Z,52.60
2022-12-09T20:14:21.486Z,52.60
2022-12-09T20:16:52.353Z,53.00
2022-12-09T20:19:20.335Z,53.10
2022-12-09T20:21:48.773Z,53.00
2022-12-09T20:24:18.180Z,53.00
2022-12-09T20:26:46.458Z,52.30
2022-12-09T20:29:14.440Z,53.10
2022-12-09T20:31:43.549Z,53.40
2022-12-09T20:34:16.004Z,53.20
2022-12-09T20:36:45.970Z,53.60
2022-12-09T20:39:16.142Z,53.30
2022-12-09T20:41:46.150Z,53.60
2022-12-09T20:44:15.218Z,54.20
2022-12-09T20:46:46.862Z,53.30
2022-12-09T20:49:14.831Z,53.90
2022-12-09T20:51:45.151Z,54.30
2022-12-09T20:54:14.259Z,54.00
2022-12-09T20:56:42.308Z,53.30
2022-12-09T20:59:13.426Z,53.60
2022-12-09T21:01:43.365Z,53.80
2022-12-09T21:04:11.309Z,54.80
2022-12-09T21:06:41.474Z,54.90
2022-12-09T21:09:11.571Z,55.00
2022-12-09T21:11:40.052Z,55.00
2022-12-09T21:14:08.654Z,54.70
2022-12-09T21:16:41.427Z,54.80
2022-12-09T21:19:12.609Z,54.20
2022-12-09T21:21:42.467Z,54.00
2022-12-09T21:24:11.662Z,53.80
2022-12-09T21:26:40.108Z,53.90
2022-12-09T21:29:09.232Z,54.40
2022-12-09T21:31:40.852Z,54.60
2022-12-09T21:34:10.256Z,54.00
2022-12-09T21:36:42.365Z,53.70
2022-12-09T21:39:12.959Z,53.70
2022-12-09T21:41:41.345Z,53.50
2022-12-09T21:44:14.868Z,53.60
2022-12-09T21:46:44.429Z,53.40
2022-12-09T21:49:14.709Z,54.40
2022-12-09T21:51:43.368Z,53.70
2022-12-09T21:54:11.440Z,53.90
2022-12-09T21:56:39.687Z,53.50
2022-12-09T21:59:08.349Z,53.50
2022-12-09T22:01:38.414Z,53.80
2022-12-09T22:04:09.878Z,53.10
2022-12-09T22:06:37.869Z,53.40
2022-12-09T22:09:07.291Z,53.20
2022-12-09T22:11:36.678Z,53.10
2022-12-09T22:14:05.830Z,52.70
2022-12-09T22:16:36.380Z,52.40
2022-12-09T22:19:08.191Z,52.80
2022-12-09T22:21:36.862Z,53.30
2022-12-09T22:24:07.194Z,53.40
2022-12-09T22:26:35.333Z,52.50
2022-12-09T22:29:06.499Z,52.70
2022-12-09T22:31:36.275Z,53.10
2022-12-09T22:34:10.841Z,52.40
2022-12-09T22:36:40.123Z,52.40
2022-12-09T22:39:08.518Z,51.70
2022-12-09T22:41:36.800Z,51.00
2022-12-09T22:44:05.749Z,50.20
2022-12-09T22:46:34.811Z,50.30
2022-12-09T22:49:13.714Z,50.90
2022-12-09T22:51:43.294Z,50.90
2022-12-09T22:54:12.059Z,51.60
2022-12-09T22:56:42.702Z,52.10
2022-12-09T22:59:10.972Z,52.80
2022-12-09T23:01:39.080Z,52.80
2022-12-09T23:04:08.089Z,52.00
2022-12-09T23:06:39.447Z,52.20
2022-12-09T23:09:11.821Z,53.00
2022-12-09T23:11:39.816Z,52.80
2022-12-09T23:14:07.813Z,52.40
2022-12-09T23:16:36.430Z,52.00
2022-12-09T23:19:04.557Z,51.20
2022-12-09T23:21:36.192Z,51.00
2022-12-09T23:24:06.857Z,51.80
2022-12-09T23:26:39.181Z,51.80
2022-12-09T23:29:12.567Z,51.70
2022-12-09T23:31:41.395Z,51.30
2022-12-09T23:34:11.874Z,51.10
2022-12-09T23:36:42.052Z,50.90
2022-12-09T23:39:11.908Z,50.60
2022-12-09T23:41:42.523Z,51.10
2022-12-09T23:44:11.734Z,51.10
2022-12-09T23:46:42.806Z,51.60
2022-12-09T23:49:10.842Z,52.30
2022-12-09T23:51:41.014Z,52.40
2022-12-09T23:54:14.450Z,52.20
2022-12-09T23:56:49.491Z,52.90
2022-12-09T23:59:19.373Z,53.30
